メインページ
METAR-TAF:

METAR-TAF

空港 :

ムンダ空港

ムンダ, ニュージョージア島, ソロモン諸島

緯度: 8-19-41S, 経度: 157-15-47E, 海抜: 3m

現時点の気象観測

当レポートは2時間18分前の06:00(UTC)に作成
無風
気温 30°C
湿度 75%
気圧 1007 hPa
視程10km以上
高度1800ftの雲はほとんどない
高度30000ftの千切れ雲あり
煙霧

METAR: AGGM 190600Z 00000KT 9999 HZ FEW018 BKN300 30/25 Q1007

時間: 19:18 (08:18 UTC)

予報

当レポートは2時間58分前の05:20(UTC)に作成
予報は19日の 06時(UTC)から 20日の 06時(UTC)まで有効
北/北東の風 8kt
視程: 1008m
高度1700ftの雲はほとんどない
高度2800ftの雲は散在している
高度10000ftの千切れ雲あり
高度1600ftの千切れ雲あり
高度1600ftの雲はほとんどない, 積乱雲.
高度10000ftの曇り
弱いにわか雨

TAF: AGGM 190520Z 1906/2006 02008KT 9999 -SHRA FEW017 SCT028 BKN100 INTER 1906/1912 4000 TSSH BKN016 FEW016CB OVC100 Q 1007 1009 1010 1008

4,000以上の空港の気象観測と天気予報(METAR報とTAF報)

利用可能な観測所は地図上に黄色い丸と赤い丸で示す。

丸の上にカーソルを重ねると観測所名を参照できる。

次にクリックすると気象観測と天気予報を参照できる。

マップの切り替え:黒色「×」印の緑ボタンをクリックして拡大、「-」印の緑ボタンをクリックして縮小、緑色の三角印をクリックして隣りの地図に切り替え


METAR-TAF: